Time;durP1;ratioP1;P1;durP2;ratioP2;P2;SDS_P1;SDS_P2;PMS_P1;PMS_P2;Temp;Humidity;BMP_temperature;BMP_pressure;BME280_temperature;BME280_humidity;BME280_pressure;Samples;Min_cycle;Max_cycle;Signal;HPM_P1;HPM_P2
2022/11/15 07:26:34;;;;;;;4.43;2.70;;;;;;;4.79;100.00;98599.56;5091408;27;20374;-78
2022/11/15 07:29:01;;;;;;;8.23;2.55;;;;;;;4.94;100.00;98597.91;5088249;28;20054;-79
2022/11/15 07:31:27;;;;;;;4.97;2.25;;;;;;;5.04;100.00;98595.06;5087720;28;20151;-79
2022/11/15 07:33:54;;;;;;;4.28;2.60;;;;;;;5.14;100.00;98601.19;5087315;28;20506;-80
2022/11/15 07:36:21;;;;;;;6.88;3.38;;;;;;;5.37;100.00;98608.66;5085806;28;20049;-80
2022/11/15 07:38:47;;;;;;;3.60;2.78;;;;;;;5.48;100.00;98611.03;5079735;28;20048;-80
2022/11/15 07:41:14;;;;;;;5.47;2.90;;;;;;;5.62;100.00;98608.69;5083783;28;20062;-80
2022/11/15 07:43:41;;;;;;;4.70;3.03;;;;;;;5.68;100.00;98602.63;5087317;28;20056;-80
2022/11/15 07:46:09;;;;;;;7.70;3.10;;;;;;;5.70;100.00;98586.28;5086789;28;20055;-80
2022/11/15 07:48:36;;;;;;;7.53;3.90;;;;;;;5.88;100.00;98591.53;5082086;28;20076;-80
2022/11/15 07:51:03;;;;;;;6.75;3.55;;;;;;;5.83;100.00;98592.84;5087978;28;20044;-80
2022/11/15 07:53:30;;;;;;;8.07;3.58;;;;;;;5.98;100.00;98594.94;5087065;28;20474;-80
2022/11/15 07:55:56;;;;;;;4.60;3.67;;;;;;;6.02;100.00;98585.47;5087517;28;20403;-80
2022/11/15 07:58:23;;;;;;;6.15;3.38;;;;;;;6.04;100.00;98583.44;5083911;28;20052;-79
2022/11/15 08:00:50;;;;;;;11.73;3.88;;;;;;;6.29;100.00;98610.41;5087115;28;20053;-80
2022/11/15 08:03:17;;;;;;;5.80;3.05;;;;;;;6.33;100.00;98601.78;5087058;28;20052;-80
2022/11/15 08:05:50;;;;;;;10.38;3.08;;;;;;;6.30;100.00;98582.41;5083202;28;20048;-80
2022/11/15 08:08:17;;;;;;;7.25;3.50;;;;;;;6.54;100.00;98590.44;5079331;28;20056;-80
2022/11/15 08:10:43;;;;;;;6.50;3.40;;;;;;;6.66;100.00;98579.28;5081023;28;20055;-80
2022/11/15 08:13:12;;;;;;;6.63;3.75;;;;;;;6.81;100.00;98572.09;5074805;28;20055;-81
2022/11/15 08:15:38;;;;;;;6.00;3.33;;;;;;;6.97;100.00;98567.63;5087015;28;20046;-81
2022/11/15 08:18:10;;;;;;;6.38;3.08;;;;;;;7.20;100.00;98573.13;5087237;28;20410;-81
2022/11/15 08:20:36;;;;;;;7.35;4.15;;;;;;;7.21;100.00;98553.16;5087255;28;20049;-81
2022/11/15 08:23:04;;;;;;;6.13;3.53;;;;;;;7.35;100.00;98573.19;5080541;28;20484;-80
2022/11/15 08:25:33;;;;;;;7.53;3.85;;;;;;;7.51;100.00;98577.63;5081782;28;20052;-81
2022/11/15 08:28:01;;;;;;;13.48;3.80;;;;;;;7.39;100.00;98553.72;5080385;28;20071;-81
2022/11/15 08:30:28;;;;;;;10.18;3.90;;;;;;;7.50;100.00;98559.72;5086900;28;20048;-81
2022/11/15 08:32:57;;;;;;;5.88;3.70;;;;;;;7.61;100.00;98568.25;5086362;28;20040;-81
2022/11/15 08:35:25;;;;;;;5.97;3.55;;;;;;;7.51;100.00;98540.63;5084054;28;20051;-81
2022/11/15 08:37:54;;;;;;;8.95;3.67;;;;;;;7.66;100.00;98554.19;5072757;28;20045;-81
2022/11/15 08:40:20;;;;;;;7.60;3.83;;;;;;;7.68;100.00;98554.00;5073729;28;20049;-81
2022/11/15 08:42:47;;;;;;;13.80;5.38;;;;;;;7.85;100.00;98549.31;5072661;28;20086;-81
2022/11/15 08:45:14;;;;;;;4.53;3.40;;;;;;;7.93;100.00;98546.53;5064932;28;20045;-80
2022/11/15 08:47:40;;;;;;;4.85;3.55;;;;;;;7.91;100.00;98532.34;5063281;28;20482;-81
2022/11/15 08:50:08;;;;;;;8.32;3.63;;;;;;;7.86;100.00;98532.03;5073090;28;20499;-81
2022/11/15 08:52:36;;;;;;;6.40;3.53;;;;;;;7.87;100.00;98525.63;5072725;28;20044;-81
2022/11/15 08:55:03;;;;;;;7.68;3.90;;;;;;;7.90;100.00;98530.66;5071341;28;20047;-80
2022/11/15 08:57:30;;;;;;;9.55;3.90;;;;;;;7.98;100.00;98544.13;5072761;28;20049;-81
2022/11/15 08:59:57;;;;;;;8.68;3.95;;;;;;;8.03;100.00;98532.75;5070020;28;20075;-81
2022/11/15 09:02:24;;;;;;;5.90;3.50;;;;;;;8.10;100.00;98520.13;5072333;28;20139;-81
2022/11/15 09:04:50;;;;;;;5.40;3.75;;;;;;;8.12;100.00;98531.63;5073439;28;20048;-81
2022/11/15 09:07:17;;;;;;;7.53;3.72;;;;;;;8.14;100.00;98522.31;5070966;28;20320;-81
2022/11/15 09:09:45;;;;;;;17.98;5.80;;;;;;;8.37;100.00;98534.06;5072876;28;20060;-81
2022/11/15 09:12:12;;;;;;;9.10;4.07;;;;;;;8.31;100.00;98522.16;5071949;28;20419;-81
2022/11/15 09:14:38;;;;;;;10.18;4.68;;;;;;;8.45;100.00;98505.06;5062868;28;20135;-81
2022/11/15 09:17:08;;;;;;;6.20;4.47;;;;;;;8.60;100.00;98509.66;5072424;28;20045;-81
2022/11/15 09:19:34;;;;;;;9.35;4.97;;;;;;;8.76;100.00;98514.88;5070857;28;20056;-81
2022/11/15 09:22:01;;;;;;;8.95;4.78;;;;;;;8.94;100.00;98516.31;5072575;28;20040;-81
2022/11/15 09:24:27;;;;;;;7.40;3.40;;;;;;;9.00;100.00;98519.13;5072308;28;20048;-81
2022/11/15 09:26:55;;;;;;;7.50;3.38;;;;;;;9.04;100.00;98511.44;5072307;28;20040;-81
2022/11/15 09:29:22;;;;;;;9.18;3.38;;;;;;;9.11;100.00;98506.06;5070034;28;20052;-81
2022/11/15 09:31:48;;;;;;;8.07;3.33;;;;;;;9.25;100.00;98509.78;5072539;28;20048;-81
2022/11/15 09:34:15;;;;;;;5.68;3.08;;;;;;;9.32;100.00;98510.66;5069211;28;20488;-81
2022/11/15 09:36:42;;;;;;;8.75;3.78;;;;;;;9.34;100.00;98498.59;5072435;28;20454;-81
2022/11/15 09:39:09;;;;;;;7.03;3.42;;;;;;;9.44;100.00;98501.00;5072528;28;20062;-81
2022/11/15 09:41:49;;;;;;;4.85;3.63;;;;;;;9.57;100.00;98517.41;5063097;28;20041;-81
2022/11/15 09:44:45;;;;;;;6.65;3.58;;;;;;;9.71;100.00;98506.66;5051719;28;20131;-81
2022/11/15 09:47:48;;;;;;;6.05;3.45;;;;;;;9.78;100.00;98514.88;5050706;28;20055;-81
2022/11/15 09:50:21;;;;;;;8.95;3.30;;;;;;;9.79;100.00;98506.53;5067546;28;20053;-81
2022/11/15 09:52:48;;;;;;;5.63;3.53;;;;;;;9.85;100.00;98503.03;5071776;28;20052;-81
2022/11/15 09:55:21;;;;;;;6.20;3.47;;;;;;;9.87;100.00;98498.25;5060893;28;20040;-82
2022/11/15 09:57:53;;;;;;;5.88;3.38;;;;;;;9.99;100.00;98495.81;5052043;28;20060;-81
2022/11/15 10:00:23;;;;;;;7.32;3.83;;;;;;;10.25;100.00;98500.63;5051476;28;20049;-82
2022/11/15 10:02:58;;;;;;;;;;;;;;;10.47;100.00;98513.31;5063702;28;20475;-81
2022/11/15 10:05:26;;;;;;;4.80;3.17;;;;;;;10.59;100.00;98520.69;5064158;28;19921;-81
2022/11/15 10:08:04;;;;;;;8.85;3.58;;;;;;;10.57;100.00;98490.16;5071383;28;20051;-81
2022/11/15 10:10:37;;;;;;;10.65;3.53;;;;;;;10.68;100.00;98490.63;5070800;28;20056;-82
2022/11/15 10:13:04;;;;;;;6.95;3.55;;;;;;;10.71;100.00;98485.63;5069797;28;20484;-81
2022/11/15 10:15:32;;;;;;;7.30;3.50;;;;;;;10.87;100.00;98486.31;5070840;28;20059;-82
2022/11/15 10:18:16;;;;;;;11.55;4.20;;;;;;;10.89;100.00;98489.69;5071904;28;20052;-81
2022/11/15 10:20:48;;;;;;;4.60;3.20;;;;;;;10.96;100.00;98483.22;5069806;28;20071;-81
2022/11/15 10:23:18;;;;;;;6.47;3.50;;;;;;;11.04;100.00;98460.44;5069436;28;20048;-81
2022/11/15 10:25:45;;;;;;;10.68;3.97;;;;;;;11.10;100.00;98458.78;5063445;28;20131;-81
2022/11/15 10:28:16;;;;;;;10.05;3.00;;;;;;;11.27;100.00;98464.66;5071418;28;20495;-81
2022/11/15 10:30:46;;;;;;;6.32;3.00;;;;;;;11.30;100.00;98453.38;5069807;28;20128;-81
2022/11/15 10:33:19;;;;;;;8.00;3.10;;;;;;;11.43;100.00;98458.84;5070259;28;20044;-81
2022/11/15 10:35:46;;;;;;;7.07;2.50;;;;;;;11.55;100.00;98461.78;5070181;28;20049;-82
2022/11/15 10:38:13;;;;;;;8.35;3.10;;;;;;;11.62;100.00;98459.03;5071445;28;20052;-81
2022/11/15 10:40:41;;;;;;;6.95;3.08;;;;;;;11.69;100.00;98446.28;5066509;28;20048;-82
2022/11/15 10:43:18;;;;;;;6.55;3.20;;;;;;;11.63;100.00;98437.06;5068430;28;20049;-81
2022/11/15 10:45:47;;;;;;;6.00;2.72;;;;;;;11.74;100.00;98457.38;5071423;28;20041;-82
2022/11/15 10:48:26;;;;;;;5.55;2.67;;;;;;;11.74;100.00;98442.91;5070931;28;20059;-81
2022/11/15 10:50:55;;;;;;;14.23;3.22;;;;;;;11.71;100.00;98441.44;5070961;28;20052;-82
2022/11/15 10:53:27;;;;;;;4.95;2.22;;;;;;;11.58;100.00;98427.88;5070227;28;20052;-82
2022/11/15 10:55:56;;;;;;;15.02;3.10;;;;;;;11.59;100.00;98418.63;5050810;28;20476;-81
2022/11/15 10:58:33;;;;;;;6.55;2.70;;;;;;;11.72;100.00;98443.13;5061128;28;20103;-82
2022/11/15 11:01:12;;;;;;;8.25;2.70;;;;;;;11.70;100.00;98418.00;5070736;28;20076;-82
2022/11/15 11:03:41;;;;;;;6.90;3.40;;;;;;;11.67;100.00;98424.72;5068134;28;20048;-82
2022/11/15 11:06:11;;;;;;;8.20;2.53;;;;;;;11.63;100.00;98430.78;5065242;28;20055;-82
2022/11/15 11:08:38;;;;;;;9.05;3.17;;;;;;;11.68;100.00;98431.84;5069913;28;20049;-81
2022/11/15 11:11:06;;;;;;;4.97;2.97;;;;;;;11.58;100.00;98420.53;5070788;28;20044;-81
2022/11/15 11:13:35;;;;;;;8.43;4.63;;;;;;;11.53;100.00;98414.84;5069119;28;20044;-81
2022/11/15 11:16:19;;;;;;;11.35;3.70;;;;;;;11.62;100.00;98415.50;5064962;28;20045;-81
2022/11/15 11:18:56;;;;;;;5.43;3.05;;;;;;;11.61;100.00;98403.78;5070958;28;20079;-81
2022/11/15 11:21:30;;;;;;;5.75;2.97;;;;;;;11.58;100.00;98400.66;5070756;28;20060;-82
2022/11/15 11:24:06;;;;;;;3.67;2.28;;;;;;;11.58;100.00;98396.03;5069057;28;20136;-82
2022/11/15 11:26:41;;;;;;;6.32;2.60;;;;;;;11.70;100.00;98409.84;5068509;28;20055;-82
2022/11/15 11:29:22;;;;;;;9.07;3.92;;;;;;;11.72;100.00;98404.19;5070296;28;20140;-82
2022/11/15 11:31:59;;;;;;;5.25;2.97;;;;;;;11.81;100.00;98413.81;5067858;28;20397;-82
2022/11/15 11:34:42;;;;;;;10.68;3.45;;;;;;;11.81;100.00;98419.25;5065702;28;20495;-82
2022/11/15 11:37:15;;;;;;;10.77;3.17;;;;;;;11.75;100.00;98399.16;5070872;28;20055;-82
2022/11/15 11:39:55;;;;;;;5.75;2.58;;;;;;;11.76;100.00;98397.28;5068567;28;20045;-82
2022/11/15 11:42:31;;;;;;;3.78;2.22;;;;;;;11.84;100.00;98392.41;5069774;28;20055;-82
2022/11/15 11:45:12;;;;;;;5.88;2.38;;;;;;;11.96;100.00;98402.72;5070268;28;20044;-82
2022/11/15 11:47:47;;;;;;;6.53;2.03;;;;;;;11.97;100.00;98385.34;5070604;28;20051;-82
2022/11/15 11:50:18;;;;;;;6.25;1.92;;;;;;;12.08;100.00;98381.94;5062599;28;20131;-82
2022/11/15 11:52:55;;;;;;;8.85;3.03;;;;;;;12.10;100.00;98368.94;5069467;28;20045;-82
2022/11/15 11:55:27;;;;;;;5.85;2.30;;;;;;;12.36;100.00;98376.19;5068555;28;20377;-82
2022/11/15 11:58:03;;;;;;;6.68;2.20;;;;;;;12.36;100.00;98369.88;5070915;28;20048;-82
2022/11/15 12:00:35;;;;;;;3.67;2.28;;;;;;;12.36;100.00;98356.25;5070815;28;20063;-82
2022/11/15 12:03:10;;;;;;;5.90;2.30;;;;;;;12.60;100.00;98368.34;5070262;28;20049;-82
2022/11/15 12:05:41;;;;;;;3.90;2.05;;;;;;;12.67;100.00;98358.19;5056403;28;20106;-82
2022/11/15 12:08:23;;;;;;;4.30;2.33;;;;;;;12.76;100.00;98336.97;5051347;28;20059;-82
2022/11/15 12:10:57;;;;;;;7.53;2.50;;;;;;;12.79;100.00;98346.63;5060573;28;20163;-82
2022/11/15 12:13:27;;;;;;;9.05;2.50;;;;;;;12.80;100.00;98351.84;5073249;28;20051;-82
2022/11/15 12:16:01;;;;;;;10.07;2.78;;;;;;;12.83;100.00;98336.94;5073788;28;20467;-82
2022/11/15 12:18:29;;;;;;;10.73;2.30;;;;;;;12.86;99.65;98334.59;5073767;28;20052;-82
2022/11/15 12:21:00;;;;;;;3.50;2.00;;;;;;;13.03;100.00;98339.53;5073750;28;20044;-82
2022/11/15 12:23:30;;;;;;;5.28;2.42;;;;;;;12.96;98.57;98320.47;5070354;28;20048;-82
2022/11/15 12:26:03;;;;;;;6.72;1.88;;;;;;;13.07;98.20;98336.13;5062612;28;20036;-82
2022/11/15 12:28:39;;;;;;;2.58;1.80;;;;;;;13.04;97.90;98322.94;5073140;28;20056;-82
2022/11/15 12:31:14;;;;;;;8.00;2.30;;;;;;;13.11;95.85;98314.69;5073660;28;20048;-82
2022/11/15 12:33:44;;;;;;;4.82;2.20;;;;;;;13.29;97.85;98322.09;5072843;28;20127;-82
2022/11/15 12:36:13;;;;;;;6.07;1.52;;;;;;;13.18;97.25;98310.00;5072654;28;20110;-81
2022/11/15 12:38:58;;;;;;;3.20;2.17;;;;;;;13.14;93.69;98305.22;5072372;28;20141;-81
2022/11/15 12:41:26;;;;;;;8.88;2.40;;;;;;;13.21;94.04;98323.22;5056542;28;20295;-82
2022/11/15 12:43:53;;;;;;;6.50;2.15;;;;;;;13.21;92.33;98322.38;5072686;28;20053;-82
2022/11/15 12:46:36;;;;;;;5.80;2.42;;;;;;;13.26;93.13;98325.28;5073262;28;20052;-82
2022/11/15 12:49:11;;;;;;;4.32;2.33;;;;;;;13.17;95.26;98312.97;5057062;28;20059;-81
2022/11/15 12:52:06;;;;;;;3.70;2.17;;;;;;;13.18;96.64;98318.19;5073455;28;20048;-82
2022/11/15 12:55:04;;;;;;;7.60;1.92;;;;;;;13.16;98.82;98322.19;5070096;28;20053;-81
2022/11/15 12:57:43;;;;;;;10.48;1.95;;;;;;;12.93;97.68;98310.84;5069268;28;20455;-81
2022/11/15 13:00:38;;;;;;;3.70;1.92;;;;;;;12.98;96.55;98312.91;5072989;28;20481;-81
2022/11/15 13:03:31;;;;;;;6.15;2.40;;;;;;;13.04;96.10;98312.03;5072374;28;20048;-81
2022/11/15 13:06:30;;;;;;;5.68;2.35;;;;;;;12.93;96.48;98296.34;5071233;28;20053;-81
2022/11/15 13:08:57;;;;;;;6.47;2.43;;;;;;;12.97;99.74;98300.31;5065748;28;20094;-81
2022/11/15 13:11:46;;;;;;;5.93;2.50;;;;;;;13.00;99.85;98302.59;5055434;28;20045;-81
2022/11/15 13:14:51;;;;;;;7.00;2.08;;;;;;;13.08;98.97;98305.06;5055646;28;20534;-81
2022/11/15 13:17:27;;;;;;;3.42;1.77;;;;;;;13.12;98.16;98288.25;5068727;28;20047;-81
2022/11/15 13:20:00;;;;;;;5.70;2.00;;;;;;;13.06;97.59;98292.69;5073017;28;20153;-82
2022/11/15 13:22:56;;;;;;;4.88;2.38;;;;;;;12.98;97.82;98287.53;5063475;28;20045;-81
2022/11/15 13:25:41;;;;;;;3.67;1.80;;;;;;;12.87;96.40;98259.06;5072817;28;20049;-81
2022/11/15 13:28:18;;;;;;;4.32;2.08;;;;;;;12.95;97.25;98283.34;5072785;28;20131;-82
2022/11/15 13:30:51;;;;;;;12.48;2.65;;;;;;;12.92;98.16;98265.53;5060754;28;20488;-82
2022/11/15 13:33:20;;;;;;;6.45;1.90;;;;;;;12.88;97.86;98258.81;5067957;28;20059;-82
2022/11/15 13:35:50;;;;;;;8.13;2.10;;;;;;;12.80;99.57;98253.66;5062512;28;20040;-82
2022/11/15 13:38:20;;;;;;;;;;;;;;;12.95;100.00;98261.53;5072708;28;20052;-82
2022/11/15 13:40:47;;;;;;;5.50;1.75;;;;;;;12.85;99.28;98245.63;5072366;28;19928;-81
2022/11/15 13:43:27;;;;;;;4.85;2.03;;;;;;;12.95;100.00;98252.47;5071315;28;20066;-81
2022/11/15 13:46:11;;;;;;;5.75;2.47;;;;;;;12.98;99.11;98250.16;5069565;28;20074;-81
2022/11/15 13:48:37;;;;;;;4.05;2.00;;;;;;;12.83;97.02;98228.66;5069787;28;20514;-81
2022/11/15 13:51:07;;;;;;;5.07;2.17;;;;;;;12.84;98.60;98234.94;5070419;28;20098;-82
2022/11/15 13:53:38;;;;;;;4.65;1.95;;;;;;;12.78;100.00;98220.34;5071116;28;20419;-81
2022/11/15 13:56:05;;;;;;;3.33;1.80;;;;;;;12.82;98.93;98245.25;5071781;28;20514;-81
2022/11/15 13:58:32;;;;;;;4.85;1.80;;;;;;;12.82;99.50;98239.81;5071772;28;20538;-82
2022/11/15 14:01:02;;;;;;;4.70;1.85;;;;;;;12.77;100.00;98229.56;5057719;28;20077;-82
2022/11/15 14:03:31;;;;;;;3.30;1.38;;;;;;;12.69;100.00;98222.50;5066797;28;20488;-82
2022/11/15 14:06:07;;;;;;;3.63;1.65;;;;;;;12.67;100.00;98215.59;5072086;28;20449;-82
2022/11/15 14:08:36;;;;;;;4.95;1.95;;;;;;;12.64;100.00;98202.41;5071866;28;20051;-82
2022/11/15 14:11:13;;;;;;;3.92;1.60;;;;;;;12.72;100.00;98205.69;5066784;28;20045;-82
2022/11/15 14:13:40;;;;;;;4.88;1.60;;;;;;;12.83;100.00;98220.50;5051377;28;20083;-82
2022/11/15 14:16:18;;;;;;;6.05;1.80;;;;;;;12.81;100.00;98211.69;5059147;28;20128;-82
2022/11/15 14:18:47;;;;;;;5.43;2.25;;;;;;;12.85;100.00;98223.81;5070909;28;20049;-81
2022/11/15 14:21:15;;;;;;;6.13;2.10;;;;;;;12.73;100.00;98192.88;5068853;28;20049;-81
2022/11/15 14:23:43;;;;;;;3.60;2.15;;;;;;;12.66;100.00;98198.41;5070899;28;20131;-81
2022/11/15 14:26:28;;;;;;;9.20;2.30;;;;;;;12.64;100.00;98178.69;5069407;28;20045;-82
2022/11/15 14:28:54;;;;;;;4.43;2.53;;;;;;;12.59;100.00;98175.78;5070117;28;20057;-81
2022/11/15 14:31:21;;;;;;;6.68;2.13;;;;;;;12.64;100.00;98186.03;5067759;28;20045;-82
2022/11/15 14:33:48;;;;;;;4.95;2.00;;;;;;;12.72;100.00;98191.19;5050340;28;20081;-81
2022/11/15 14:36:18;;;;;;;4.82;1.98;;;;;;;12.49;100.00;98170.00;5050227;28;20057;-81
2022/11/15 14:38:46;;;;;;;3.20;1.73;;;;;;;12.43;100.00;98170.88;5061705;28;20052;-81
2022/11/15 14:41:21;;;;;;;3.22;1.77;;;;;;;12.55;100.00;98188.19;5070660;28;20283;-82
2022/11/15 14:43:49;;;;;;;5.90;1.85;;;;;;;12.45;100.00;98179.66;5069253;28;20057;-81
2022/11/15 14:46:15;;;;;;;3.97;1.85;;;;;;;12.45;100.00;98177.78;5067839;28;20057;-81
2022/11/15 14:48:42;;;;;;;5.25;1.98;;;;;;;12.38;100.00;98180.56;5064947;28;20056;-82
2022/11/15 14:51:13;;;;;;;3.45;1.73;;;;;;;12.21;100.00;98144.00;5062962;28;20048;-81
2022/11/15 14:53:41;;;;;;;4.65;1.95;;;;;;;12.20;100.00;98167.69;5069975;28;20052;-81
2022/11/15 14:56:09;;;;;;;6.13;2.47;;;;;;;12.14;100.00;98173.19;5070932;28;20062;-81
2022/11/15 14:58:36;;;;;;;3.33;1.90;;;;;;;12.11;100.00;98165.44;5069571;28;20049;-81
2022/11/15 15:01:04;;;;;;;3.70;2.00;;;;;;;12.06;100.00;98147.03;5070773;28;20049;-81
2022/11/15 15:03:31;;;;;;;5.30;2.03;;;;;;;12.07;100.00;98137.78;5070108;28;20055;-81
2022/11/15 15:05:57;;;;;;;4.88;1.85;;;;;;;12.20;100.00;98150.50;5070796;28;20048;-81
2022/11/15 15:08:24;;;;;;;4.45;2.28;;;;;;;12.04;100.00;98130.06;5064066;28;20073;-81
2022/11/15 15:10:50;;;;;;;3.00;1.80;;;;;;;12.09;100.00;98145.75;5070731;28;20507;-81
2022/11/15 15:13:20;;;;;;;4.95;1.40;;;;;;;11.89;100.00;98111.28;5065572;28;20503;-82
2022/11/15 15:15:48;;;;;;;2.67;1.98;;;;;;;12.08;100.00;98146.81;5070935;28;20083;-81
2022/11/15 15:18:15;;;;;;;3.08;1.50;;;;;;;12.05;100.00;98134.47;5070564;28;20461;-81
2022/11/15 15:20:45;;;;;;;2.88;1.70;;;;;;;11.92;100.00;98127.16;5070835;28;20048;-81
2022/11/15 15:23:15;;;;;;;;;;;;;;;11.84;100.00;98122.81;5070263;28;20124;-81
2022/11/15 15:25:42;;;;;;;3.13;2.10;;;;;;;11.81;100.00;98128.72;5058793;28;20434;-81
2022/11/15 15:28:09;;;;;;;7.18;1.95;;;;;;;11.68;100.00;98115.16;5068514;28;20464;-81
2022/11/15 15:30:36;;;;;;;3.95;1.65;;;;;;;11.57;100.00;98083.19;5056661;28;20144;-81
2022/11/15 15:33:03;;;;;;;2.00;1.40;;;;;;;11.62;100.00;98084.22;5049716;28;20052;-82
2022/11/15 15:35:32;;;;;;;4.65;1.50;;;;;;;11.55;100.00;98098.91;5049278;28;20507;-82
2022/11/15 15:37:59;;;;;;;2.13;1.33;;;;;;;11.38;100.00;98082.25;5054498;28;20068;-81
2022/11/15 15:40:28;;;;;;;5.32;1.73;;;;;;;11.32;100.00;98089.38;5062940;28;20416;-82
2022/11/15 15:42:55;;;;;;;2.83;1.33;;;;;;;11.37;100.00;98095.03;5062166;28;20044;-81
2022/11/15 15:45:22;;;;;;;3.47;1.60;;;;;;;11.30;100.00;98077.88;5070076;28;20051;-81
2022/11/15 15:47:51;;;;;;;1.98;1.20;;;;;;;11.41;100.00;98088.09;5073502;28;20049;-81
2022/11/15 15:50:23;;;;;;;1.50;1.17;;;;;;;11.23;100.00;98055.31;5073646;28;20049;-81
2022/11/15 15:52:50;;;;;;;9.13;1.73;;;;;;;11.19;100.00;98073.97;5061953;28;20048;-81
2022/11/15 15:55:17;;;;;;;8.55;1.48;;;;;;;11.22;100.00;98078.16;5069290;28;20052;-81
2022/11/15 15:57:43;;;;;;;3.97;1.60;;;;;;;11.10;100.00;98050.78;5073035;28;20048;-81
2022/11/15 16:00:11;;;;;;;4.97;1.75;;;;;;;11.23;100.00;98066.19;5074015;28;20059;-81
2022/11/15 16:02:37;;;;;;;3.00;1.88;;;;;;;11.25;100.00;98073.09;5073592;28;20055;-81
2022/11/15 16:05:06;;;;;;;3.50;2.00;;;;;;;11.07;100.00;98045.78;5074370;28;20052;-82
2022/11/15 16:07:33;;;;;;;5.55;2.08;;;;;;;11.05;100.00;98051.44;5066856;28;20392;-81
2022/11/15 16:10:02;;;;;;;3.05;1.70;;;;;;;11.20;100.00;98074.78;5074221;28;20067;-81
2022/11/15 16:12:30;;;;;;;6.20;2.08;;;;;;;10.98;100.00;98040.56;5068197;28;20060;-82
2022/11/15 16:14:56;;;;;;;5.38;2.20;;;;;;;11.07;100.00;98045.78;5072276;28;20071;-81
2022/11/15 16:17:26;;;;;;;6.45;2.20;;;;;;;11.08;100.00;98037.38;5073448;28;20063;-81
2022/11/15 16:19:52;;;;;;;8.20;2.13;;;;;;;11.15;100.00;98059.97;5074050;28;20053;-81
2022/11/15 16:22:20;;;;;;;3.53;2.10;;;;;;;11.11;100.00;98055.16;5071664;28;20294;-81
2022/11/15 16:24:47;;;;;;;4.20;2.50;;;;;;;10.97;100.00;98021.72;5053982;28;20399;-81
2022/11/15 16:27:15;;;;;;;4.15;1.98;;;;;;;10.91;100.00;98025.31;5067100;28;20059;-81
2022/11/15 16:29:42;;;;;;;8.63;2.60;;;;;;;11.00;100.00;98037.63;5063523;28;20415;-80
2022/11/15 16:32:08;;;;;;;5.25;2.58;;;;;;;10.94;100.00;98039.34;5071411;28;20044;-81
2022/11/15 16:34:35;;;;;;;6.38;2.92;;;;;;;10.97;100.00;98051.66;5072714;28;20055;-81
2022/11/15 16:37:02;;;;;;;2.72;2.05;;;;;;;10.92;100.00;98035.16;5073569;28;20185;-81
2022/11/15 16:39:30;;;;;;;5.32;2.58;;;;;;;10.89;100.00;98028.25;5073319;28;20044;-81
2022/11/15 16:41:56;;;;;;;3.45;1.90;;;;;;;10.85;100.00;98020.75;5070720;28;20051;-81
2022/11/15 16:44:23;;;;;;;5.28;2.15;;;;;;;10.89;100.00;98017.38;5069886;28;20080;-81
2022/11/15 16:46:51;;;;;;;11.35;2.45;;;;;;;10.94;100.00;98030.31;5074591;28;20048;-81
2022/11/15 16:49:23;;;;;;;2.88;2.00;;;;;;;10.82;100.00;98004.84;5074756;28;20490;-81
2022/11/15 16:51:51;;;;;;;5.45;1.63;;;;;;;10.81;100.00;98006.75;5068139;28;20050;-80
2022/11/15 16:54:17;;;;;;;3.72;1.98;;;;;;;10.93;100.00;98015.91;5070295;28;20059;-82
2022/11/15 16:56:46;;;;;;;3.58;1.70;;;;;;;10.87;100.00;98000.44;5074880;28;20044;-78
2022/11/15 16:59:16;;;;;;;4.93;2.03;;;;;;;10.93;100.00;97996.00;5072845;28;20048;-80
2022/11/15 17:01:49;;;;;;;7.70;1.73;;;;;;;10.87;100.00;97995.00;5074722;28;20462;-79
2022/11/15 17:04:21;;;;;;;6.97;2.20;;;;;;;10.87;100.00;97991.44;5072557;28;20048;-79
2022/11/15 17:06:48;;;;;;;6.03;1.95;;;;;;;10.81;100.00;97993.16;5064069;28;20057;-80
2022/11/15 17:09:18;;;;;;;3.28;2.10;;;;;;;10.85;100.00;97999.81;5069264;28;20048;-80
2022/11/15 17:11:46;;;;;;;3.25;1.88;;;;;;;10.87;100.00;98003.19;5068937;28;20469;-80
2022/11/15 17:14:13;;;;;;;3.78;2.33;;;;;;;10.81;100.00;97998.59;5069419;28;20074;-80
2022/11/15 17:16:41;;;;;;;2.28;1.50;;;;;;;10.82;100.00;97983.09;5062736;28;20049;-80
2022/11/15 17:19:14;;;;;;;2.28;1.60;;;;;;;10.81;100.00;97990.44;5072423;28;20040;-80
2022/11/15 17:21:42;;;;;;;2.28;1.60;;;;;;;10.91;100.00;97992.69;5064540;28;20056;-80
2022/11/15 17:24:09;;;;;;;2.22;1.33;;;;;;;10.77;100.00;97970.16;5069184;28;20178;-80
2022/11/15 17:26:36;;;;;;;4.90;2.47;;;;;;;10.82;100.00;97972.25;5070066;28;20476;-80
2022/11/15 17:29:06;;;;;;;7.00;2.10;;;;;;;10.84;100.00;97968.25;5053198;28;20156;-80
2022/11/15 17:31:33;;;;;;;13.77;6.85;;;;;;;10.80;100.00;97965.13;5066868;28;20059;-80
2022/11/15 17:34:00;;;;;;;3.53;2.33;;;;;;;10.93;100.00;97972.41;5069427;28;20040;-81
2022/11/15 17:36:27;;;;;;;4.25;1.85;;;;;;;10.83;100.00;97952.16;5065649;28;20054;-79
2022/11/15 17:38:54;;;;;;;4.18;2.20;;;;;;;10.72;100.00;97948.22;5064162;28;20051;-80
2022/11/15 17:41:21;;;;;;;4.75;2.65;;;;;;;10.89;100.00;97957.56;5059067;28;20571;-80
2022/11/15 17:43:48;;;;;;;5.97;2.08;;;;;;;10.85;99.76;97947.34;5056736;28;20037;-80
2022/11/15 17:46:17;;;;;;;5.30;2.50;;;;;;;10.88;100.00;97955.06;5070106;28;20056;-80
2022/11/15 17:48:44;;;;;;;3.30;2.10;;;;;;;10.90;100.00;97967.41;5067462;28;20050;-80
2022/11/15 17:51:13;;;;;;;3.00;2.00;;;;;;;10.82;100.00;97962.19;5064683;28;20484;-80
2022/11/15 17:53:42;;;;;;;2.67;2.30;;;;;;;10.86;100.00;97978.91;5068470;28;20048;-80
2022/11/15 17:56:10;;;;;;;6.80;2.60;;;;;;;10.77;100.00;97971.00;5054711;28;20310;-80
2022/11/15 17:58:37;;;;;;;3.35;2.03;;;;;;;10.65;100.00;97942.81;5065697;28;20234;-80
2022/11/15 18:01:17;;;;;;;4.97;2.33;;;;;;;10.70;100.00;97961.19;5055063;28;20076;-80
2022/11/15 18:03:44;;;;;;;5.13;2.45;;;;;;;10.69;100.00;97954.09;5059817;28;20052;-80
2022/11/15 18:06:11;;;;;;;4.18;2.60;;;;;;;10.70;100.00;97959.31;5063965;28;20057;-81
2022/11/15 18:08:39;;;;;;;3.53;2.10;;;;;;;10.78;100.00;97961.78;5062888;28;20127;-80
2022/11/15 18:11:07;;;;;;;4.25;2.10;;;;;;;10.78;100.00;97971.84;5062744;28;20101;-80
2022/11/15 18:13:35;;;;;;;3.40;2.50;;;;;;;10.60;100.00;97956.22;5065067;28;20098;-80
2022/11/15 18:16:03;;;;;;;4.50;2.40;;;;;;;10.66;100.00;97960.81;5069405;28;20063;-80
2022/11/15 18:18:33;;;;;;;4.47;2.42;;;;;;;10.66;100.00;97959.94;5053476;28;20049;-80
2022/11/15 18:21:03;;;;;;;6.53;2.70;;;;;;;10.62;100.00;97952.22;5060929;28;20278;-80
2022/11/15 18:23:29;;;;;;;5.38;3.55;;;;;;;10.51;100.00;97938.47;5066230;28;20041;-80
2022/11/15 18:25:56;;;;;;;4.05;2.53;;;;;;;10.42;100.00;97937.91;5064681;28;20167;-80
2022/11/15 18:28:23;;;;;;;3.75;2.58;;;;;;;10.53;100.00;97956.25;5061278;28;20059;-80
2022/11/15 18:30:49;;;;;;;7.18;2.58;;;;;;;10.57;100.00;97951.22;5067407;28;20134;-80
2022/11/15 18:33:16;;;;;;;9.52;2.75;;;;;;;10.46;100.00;97933.69;5061893;28;20059;-80
2022/11/15 18:35:44;;;;;;;6.13;3.20;;;;;;;10.40;100.00;97935.41;5068362;28;20058;-80
2022/11/15 18:38:10;;;;;;;5.32;3.20;;;;;;;10.49;100.00;97951.44;5062473;28;20059;-80
2022/11/15 18:40:37;;;;;;;7.10;3.22;;;;;;;10.43;100.00;97948.56;5064892;28;20056;-79
2022/11/15 18:43:03;;;;;;;4.70;2.90;;;;;;;10.32;100.00;97926.59;5053085;28;20420;-80
2022/11/15 18:45:30;;;;;;;7.22;3.50;;;;;;;10.43;100.00;97937.69;5065744;28;20052;-79
2022/11/15 18:47:57;;;;;;;7.07;2.92;;;;;;;10.45;100.00;97943.72;5064986;28;20098;-80
2022/11/15 18:50:24;;;;;;;10.73;3.50;;;;;;;10.48;100.00;97944.34;5069139;28;20044;-80
2022/11/15 18:52:52;;;;;;;7.80;3.40;;;;;;;10.35;100.00;97926.22;5057137;28;20132;-81
2022/11/15 18:55:18;;;;;;;7.05;3.67;;;;;;;10.36;100.00;97926.00;5057406;28;20132;-79
2022/11/15 18:57:45;;;;;;;14.90;7.80;;;;;;;10.43;100.00;97942.25;5065270;28;20045;-80
2022/11/15 19:00:13;;;;;;;9.52;4.13;;;;;;;10.44;100.00;97949.38;5053277;28;20408;-80
2022/11/15 19:02:39;;;;;;;4.97;3.50;;;;;;;10.29;100.00;97925.16;5048146;28;20493;-80
2022/11/15 19:05:06;;;;;;;6.28;3.55;;;;;;;10.43;100.00;97953.13;5047757;28;20059;-80
2022/11/15 19:07:33;;;;;;;7.00;3.53;;;;;;;10.27;100.00;97938.13;5051909;28;20057;-80
2022/11/15 19:10:01;;;;;;;10.02;3.63;;;;;;;10.31;100.00;97944.78;5057463;28;20040;-80